Time;durP1;ratioP1;P1;durP2;ratioP2;P2;SDS_P1;SDS_P2;PMS_P1;PMS_P2;Temp;Humidity;BMP_temperature;BMP_pressure;BME280_temperature;BME280_humidity;BME280_pressure;Samples;Min_cycle;Max_cycle;Signal;HPM_P1;HPM_P2
2022/12/20 00:02:07;;;;;;;10.13;9.00;;;5.60;99.90;;;;;;4994209;28;20993;-67
2022/12/20 00:04:33;;;;;;;9.80;8.60;;;5.60;99.90;;;;;;4994371;28;20226;-67
2022/12/20 00:06:58;;;;;;;10.50;9.03;;;5.60;99.90;;;;;;4994278;28;20179;-69
2022/12/20 00:09:24;;;;;;;10.00;8.10;;;5.60;99.90;;;;;;4994002;28;20172;-68
2022/12/20 00:11:50;;;;;;;10.93;9.83;;;5.60;99.90;;;;;;4994485;28;20630;-68
2022/12/20 00:14:16;;;;;;;10.27;9.27;;;5.60;99.90;;;;;;4994251;28;20175;-68
2022/12/20 00:16:42;;;;;;;10.30;8.53;;;5.50;99.90;;;;;;4993231;28;20545;-68
2022/12/20 00:19:10;;;;;;;12.00;10.60;;;5.50;99.90;;;;;;4993781;28;20485;-67
2022/12/20 00:21:36;;;;;;;13.47;10.00;;;5.50;99.90;;;;;;4994039;28;20204;-68
2022/12/20 00:24:03;;;;;;;9.87;8.87;;;5.50;99.90;;;;;;4993959;28;20431;-67
2022/12/20 00:26:31;;;;;;;10.63;8.50;;;5.40;99.90;;;;;;4993959;28;20423;-68
2022/12/20 00:28:57;;;;;;;11.70;9.63;;;5.40;99.90;;;;;;4993655;28;20480;-68
2022/12/20 00:31:24;;;;;;;9.33;8.43;;;5.40;99.90;;;;;;4993710;28;20534;-67
2022/12/20 00:33:52;;;;;;;8.60;7.80;;;5.40;99.90;;;;;;4993754;28;20502;-68
2022/12/20 00:36:18;;;;;;;10.73;9.47;;;5.30;99.90;;;;;;4993753;28;20423;-68
2022/12/20 00:38:45;;;;;;;12.23;8.97;;;5.30;99.90;;;;;;4993375;28;20423;-67
2022/12/20 00:41:17;;;;;;;8.87;7.97;;;5.30;99.90;;;;;;4993638;28;20446;-68
2022/12/20 00:43:43;;;;;;;12.70;8.20;;;5.30;99.90;;;;;;4993653;28;20418;-68
2022/12/20 00:46:10;;;;;;;13.40;9.20;;;5.20;99.90;;;;;;4993511;28;20418;-68
2022/12/20 00:48:36;;;;;;;8.07;7.27;;;5.20;99.90;;;;;;4993160;28;20427;-67
2022/12/20 00:51:05;;;;;;;11.73;10.53;;;5.20;99.90;;;;;;4993287;28;20500;-67
2022/12/20 00:53:31;;;;;;;9.53;8.47;;;5.20;99.90;;;;;;4993418;28;20449;-68
2022/12/20 00:55:57;;;;;;;10.10;9.10;;;5.30;99.90;;;;;;4993409;28;20745;-67
2022/12/20 00:58:23;;;;;;;12.67;10.13;;;5.30;99.90;;;;;;4993039;28;20418;-67
2022/12/20 01:00:49;;;;;;;14.83;10.50;;;5.30;99.90;;;;;;4993248;28;20443;-68
2022/12/20 01:03:15;;;;;;;12.73;10.87;;;5.30;99.90;;;;;;4993258;28;20179;-68
2022/12/20 01:05:52;;;;;;;16.77;12.60;;;5.30;99.90;;;;;;4993334;28;20505;-68
2022/12/20 01:08:18;;;;;;;14.40;10.17;;;5.30;99.90;;;;;;4991778;28;20641;-67
2022/12/20 01:10:44;;;;;;;14.07;12.43;;;5.30;99.90;;;;;;4992914;28;20557;-68
2022/12/20 01:13:09;;;;;;;19.83;13.50;;;5.40;99.90;;;;;;4993029;28;20493;-68
2022/12/20 01:15:35;;;;;;;16.63;13.93;;;5.40;99.90;;;;;;4993247;28;20172;-67
2022/12/20 01:18:01;;;;;;;14.70;11.27;;;5.30;99.90;;;;;;4993020;28;20248;-67
2022/12/20 01:20:26;;;;;;;13.50;12.10;;;5.30;99.90;;;;;;4992726;28;20859;-68
2022/12/20 01:22:52;;;;;;;16.00;11.73;;;5.20;99.90;;;;;;4992985;28;20657;-68
2022/12/20 01:25:18;;;;;;;12.60;11.23;;;5.20;99.90;;;;;;4992922;28;20184;-67
2022/12/20 01:27:43;;;;;;;13.47;11.40;;;5.20;99.90;;;;;;4992726;28;20254;-66
2022/12/20 01:30:09;;;;;;;13.67;10.27;;;5.20;99.90;;;;;;4992483;28;20246;-69
2022/12/20 01:32:35;;;;;;;12.80;11.40;;;5.30;99.90;;;;;;4992799;28;20191;-68
2022/12/20 01:35:01;;;;;;;14.60;10.70;;;5.30;99.90;;;;;;4992775;28;20535;-67
2022/12/20 01:37:26;;;;;;;15.47;11.20;;;5.30;99.90;;;;;;4992847;28;20198;-68
2022/12/20 01:39:52;;;;;;;15.33;11.80;;;5.30;99.90;;;;;;4992493;28;20174;-68
2022/12/20 01:42:17;;;;;;;15.90;13.10;;;5.30;99.90;;;;;;4992628;28;20199;-67
2022/12/20 01:44:43;;;;;;;21.20;16.27;;;5.30;99.90;;;;;;4992777;28;20540;-67
2022/12/20 01:47:10;;;;;;;17.53;15.50;;;5.30;99.90;;;;;;4992649;28;20171;-68
2022/12/20 01:49:42;;;;;;;21.03;15.83;;;5.20;99.90;;;;;;4992331;28;20176;-67
2022/12/20 01:52:17;;;;;;;19.30;15.80;;;5.30;99.90;;;;;;4992519;28;20554;-68
2022/12/20 01:54:46;;;;;;;12.90;11.60;;;5.20;99.90;;;;;;4992633;28;20513;-68
2022/12/20 01:57:17;;;;;;;17.93;14.77;;;5.20;99.90;;;;;;4992595;28;21174;-68
2022/12/20 01:59:44;;;;;;;18.53;16.20;;;5.10;99.90;;;;;;4992484;28;20414;-68
2022/12/20 02:02:11;;;;;;;18.10;16.20;;;5.10;99.90;;;;;;4992445;28;20443;-68
2022/12/20 02:04:37;;;;;;;19.00;16.43;;;5.10;99.90;;;;;;4992501;28;20419;-67
2022/12/20 02:07:05;;;;;;;23.17;19.40;;;5.20;99.90;;;;;;4992450;28;20466;-68
2022/12/20 02:09:32;;;;;;;20.57;17.43;;;5.20;99.90;;;;;;4992174;28;20415;-68
2022/12/20 02:12:06;;;;;;;18.73;16.73;;;5.10;99.90;;;;;;4992247;28;20466;-68
2022/12/20 02:14:54;;;;;;;18.63;16.23;;;5.00;99.90;;;;;;4991213;28;20427;-68
2022/12/20 02:17:35;;;;;;;21.60;16.77;;;5.00;99.90;;;;;;4992371;28;20484;-68
2022/12/20 02:20:20;;;;;;;21.40;18.60;;;4.80;99.90;;;;;;4992105;28;20423;-68
2022/12/20 02:22:52;;;;;;;24.47;16.87;;;4.70;99.90;;;;;;4992461;28;20446;-66
2022/12/20 02:25:32;;;;;;;20.57;17.57;;;4.70;99.90;;;;;;4992687;28;20414;-68
2022/12/20 02:28:13;;;;;;;21.80;16.40;;;4.70;99.90;;;;;;4992423;28;20452;-68
2022/12/20 02:30:42;;;;;;;19.70;17.20;;;4.70;99.90;;;;;;4992289;28;20497;-67
2022/12/20 02:33:10;;;;;;;19.30;16.57;;;4.70;99.90;;;;;;4992534;28;20950;-67
2022/12/20 02:35:37;;;;;;;22.70;18.53;;;4.70;99.90;;;;;;4992342;28;20411;-67
2022/12/20 02:38:23;;;;;;;20.97;17.87;;;4.70;99.90;;;;;;4992130;28;20425;-68
2022/12/20 02:40:53;;;;;;;20.40;17.50;;;4.70;99.90;;;;;;4994015;28;20786;-68
2022/12/20 02:46:06;;;;;;;19.73;16.93;;;4.70;99.90;;;;;;4995866;28;20868;-67
2022/12/20 02:48:34;;;;;;;19.10;15.27;;;4.80;99.90;;;;;;4995436;28;20797;-68
2022/12/20 02:51:01;;;;;;;18.17;16.20;;;4.70;99.90;;;;;;4995552;28;20466;-67
2022/12/20 02:53:28;;;;;;;19.93;16.30;;;4.70;99.90;;;;;;4995863;28;20465;-67
2022/12/20 02:56:15;;;;;;;18.43;14.97;;;4.70;99.90;;;;;;4995650;28;20504;-68
2022/12/20 02:58:53;;;;;;;15.90;14.20;;;4.70;99.90;;;;;;4995255;28;20916;-67
2022/12/20 03:01:26;;;;;;;19.00;14.37;;;4.70;99.90;;;;;;4995470;28;20437;-68
2022/12/20 03:03:53;;;;;;;18.87;14.67;;;4.70;99.90;;;;;;4995450;28;20411;-68
2022/12/20 03:06:19;;;;;;;25.07;15.33;;;4.70;99.90;;;;;;4995520;28;20418;-68
2022/12/20 03:08:45;;;;;;;15.17;12.63;;;4.70;99.90;;;;;;4995191;28;20548;-67
2022/12/20 03:11:12;;;;;;;17.20;13.37;;;4.70;99.90;;;;;;4995163;28;20545;-67
2022/12/20 03:13:37;;;;;;;17.13;13.67;;;4.70;99.90;;;;;;4995354;28;20896;-67
2022/12/20 03:16:03;;;;;;;18.07;14.17;;;4.70;99.90;;;;;;4995189;28;20447;-67
2022/12/20 03:18:29;;;;;;;18.20;15.03;;;4.70;99.90;;;;;;4994967;28;20633;-67
2022/12/20 03:20:54;;;;;;;15.40;11.43;;;4.70;99.90;;;;;;4995229;28;20276;-67
2022/12/20 03:23:20;;;;;;;15.40;11.60;;;4.70;99.90;;;;;;4995281;28;20167;-67
2022/12/20 03:25:46;;;;;;;12.10;9.33;;;4.80;99.90;;;;;;4995152;28;20242;-67
2022/12/20 03:28:12;;;;;;;16.73;12.00;;;4.80;99.90;;;;;;4994845;28;20423;-67
2022/12/20 03:30:37;;;;;;;12.03;10.47;;;4.90;99.90;;;;;;4994789;28;20235;-68
2022/12/20 03:33:03;;;;;;;11.93;10.30;;;4.90;99.90;;;;;;4995035;28;20172;-68
2022/12/20 03:35:28;;;;;;;12.67;11.33;;;5.00;99.90;;;;;;4995256;28;20184;-68
2022/12/20 03:37:55;;;;;;;12.37;10.20;;;5.00;99.90;;;;;;4994818;28;20168;-68
2022/12/20 03:40:21;;;;;;;12.90;10.17;;;5.00;99.90;;;;;;4994563;28;20797;-68
2022/12/20 03:42:46;;;;;;;15.30;12.53;;;5.00;99.90;;;;;;4994827;28;20426;-68
2022/12/20 03:45:12;;;;;;;15.17;12.50;;;5.00;99.90;;;;;;4994648;28;20421;-67
2022/12/20 03:47:38;;;;;;;12.90;8.93;;;5.00;99.90;;;;;;4994680;28;20200;-67
2022/12/20 03:50:05;;;;;;;11.23;8.73;;;5.00;99.90;;;;;;4994389;28;20194;-68
2022/12/20 03:52:31;;;;;;;9.80;8.10;;;5.00;99.90;;;;;;4994540;28;20649;-67
2022/12/20 03:54:56;;;;;;;10.30;8.93;;;5.00;99.90;;;;;;4994538;28;20427;-68
2022/12/20 03:57:22;;;;;;;10.10;8.60;;;5.10;99.90;;;;;;4994604;28;20226;-68
2022/12/20 03:59:47;;;;;;;9.53;8.60;;;5.10;99.90;;;;;;4994094;28;20175;-67
2022/12/20 04:02:13;;;;;;;10.37;8.40;;;5.20;99.90;;;;;;4994346;28;20282;-67
2022/12/20 04:04:39;;;;;;;9.20;7.30;;;5.20;99.90;;;;;;4994398;28;20175;-67
2022/12/20 04:07:04;;;;;;;9.13;8.00;;;5.20;99.90;;;;;;4994428;28;20172;-68
2022/12/20 04:09:30;;;;;;;11.13;8.83;;;5.20;99.90;;;;;;4993953;28;20172;-67
2022/12/20 04:11:55;;;;;;;10.07;7.67;;;5.30;99.90;;;;;;4993916;28;20207;-67
2022/12/20 04:14:21;;;;;;;9.03;7.67;;;5.30;99.90;;;;;;4994065;28;20632;-67
2022/12/20 04:16:46;;;;;;;9.77;7.43;;;5.30;99.90;;;;;;4994373;28;20179;-67
2022/12/20 04:19:12;;;;;;;10.57;7.93;;;5.30;99.90;;;;;;4993886;28;20168;-67
2022/12/20 04:21:37;;;;;;;10.57;7.53;;;5.30;99.90;;;;;;4993985;28;20274;-68
2022/12/20 04:24:05;;;;;;;10.00;7.97;;;5.30;99.90;;;;;;4994008;28;20652;-68
2022/12/20 04:26:31;;;;;;;8.80;7.90;;;5.40;99.90;;;;;;4994000;28;20733;-69
2022/12/20 04:28:57;;;;;;;12.13;8.50;;;5.40;99.90;;;;;;4993627;28;20414;-67
2022/12/20 04:31:22;;;;;;;9.40;7.73;;;5.40;99.90;;;;;;4993683;28;20459;-67
2022/12/20 04:33:48;;;;;;;7.97;7.20;;;5.40;99.90;;;;;;4993901;28;20255;-68
2022/12/20 04:36:14;;;;;;;9.27;6.57;;;5.40;99.90;;;;;;4993885;28;20587;-68
2022/12/20 04:38:40;;;;;;;7.50;6.80;;;5.50;99.90;;;;;;4993422;28;20426;-67
2022/12/20 04:41:05;;;;;;;7.73;6.77;;;5.50;99.90;;;;;;4993598;28;20199;-68
2022/12/20 04:43:31;;;;;;;7.30;6.60;;;5.50;99.90;;;;;;4993656;28;20191;-67
2022/12/20 04:45:57;;;;;;;17.67;7.70;;;5.60;99.90;;;;;;4993758;28;20667;-67
2022/12/20 04:48:28;;;;;;;10.07;6.90;;;5.60;99.90;;;;;;4993250;28;20222;-68
2022/12/20 04:50:55;;;;;;;9.30;7.53;;;5.70;99.90;;;;;;4993458;28;20207;-68
2022/12/20 04:56:07;;;;;;;10.63;9.07;;;5.80;99.90;;;;;;4993723;28;20514;-67
2022/12/20 04:58:32;;;;;;;9.10;8.10;;;5.80;99.90;;;;;;4993159;28;20419;-68
2022/12/20 05:00:58;;;;;;;13.37;10.60;;;5.80;99.90;;;;;;4993337;28;20446;-68
2022/12/20 05:03:24;;;;;;;9.50;8.60;;;5.80;99.90;;;;;;4992943;28;20562;-68
2022/12/20 05:05:50;;;;;;;13.33;9.13;;;5.80;99.90;;;;;;4993365;28;20203;-67
2022/12/20 05:08:17;;;;;;;9.80;8.00;;;5.80;99.90;;;;;;4992979;28;20450;-68
2022/12/20 05:10:43;;;;;;;12.80;8.90;;;5.80;99.90;;;;;;4992936;28;20306;-68
2022/12/20 05:13:09;;;;;;;7.97;7.17;;;5.80;99.90;;;;;;4993143;28;20446;-67
2022/12/20 05:15:35;;;;;;;9.10;7.73;;;5.70;99.90;;;;;;4993085;28;20524;-68
2022/12/20 05:18:01;;;;;;;7.67;6.60;;;5.80;99.90;;;;;;4993234;28;20168;-67
2022/12/20 05:20:28;;;;;;;7.67;6.63;;;5.80;99.90;;;;;;4992748;28;20430;-68
2022/12/20 05:28:25;;;;;;;10.80;6.23;;;5.90;99.90;;;;;;4992628;28;20803;-68
2022/12/20 05:30:51;;;;;;;8.10;7.23;;;5.90;99.90;;;;;;4992696;28;20462;-67
2022/12/20 05:33:16;;;;;;;6.93;6.23;;;5.90;99.90;;;;;;4992740;28;20233;-67
2022/12/20 05:35:42;;;;;;;8.90;7.10;;;5.90;99.90;;;;;;4992791;28;20526;-68
2022/12/20 05:38:07;;;;;;;8.57;6.60;;;5.90;99.90;;;;;;4992814;28;20258;-67
2022/12/20 05:40:33;;;;;;;7.87;7.07;;;5.90;99.90;;;;;;4992560;28;20171;-68
2022/12/20 05:42:59;;;;;;;8.37;6.37;;;5.90;99.90;;;;;;4992675;28;20164;-68
2022/12/20 05:45:25;;;;;;;8.07;6.70;;;6.00;99.90;;;;;;4992794;28;20179;-68
2022/12/20 05:47:50;;;;;;;8.43;7.20;;;6.00;99.90;;;;;;4992730;28;20415;-68
2022/12/20 05:50:16;;;;;;;7.23;6.50;;;6.00;99.90;;;;;;4992248;28;20422;-67
2022/12/20 05:52:42;;;;;;;9.70;6.83;;;6.00;99.90;;;;;;4993030;28;20582;-68
2022/12/20 05:55:08;;;;;;;11.03;7.47;;;6.00;99.90;;;;;;4992544;28;20183;-67
2022/12/20 05:57:33;;;;;;;7.57;6.60;;;6.00;99.90;;;;;;4992528;28;20175;-68
2022/12/20 05:59:59;;;;;;;8.57;7.67;;;6.00;99.90;;;;;;4992270;28;20544;-67
2022/12/20 06:02:24;;;;;;;8.17;6.40;;;6.00;99.90;;;;;;4992520;28;20215;-68
2022/12/20 06:04:49;;;;;;;6.17;5.50;;;6.00;99.90;;;;;;4992254;28;20223;-67
2022/12/20 06:07:15;;;;;;;6.33;5.73;;;6.00;99.90;;;;;;4992475;28;20214;-68
2022/12/20 06:09:40;;;;;;;7.73;5.83;;;6.00;99.90;;;;;;4992178;28;20175;-68
2022/12/20 06:12:06;;;;;;;9.17;6.23;;;6.00;99.90;;;;;;4992389;28;20266;-67
2022/12/20 06:14:32;;;;;;;9.10;6.30;;;6.00;99.90;;;;;;4992435;28;20520;-67
2022/12/20 06:16:57;;;;;;;7.90;6.43;;;6.00;99.90;;;;;;4996164;28;20183;-68
2022/12/20 06:19:23;;;;;;;6.77;5.83;;;6.00;99.90;;;;;;4996027;28;20179;-67
2022/12/20 06:21:48;;;;;;;9.97;5.93;;;6.10;99.90;;;;;;4996188;28;20196;-67
2022/12/20 06:24:14;;;;;;;8.57;6.87;;;6.20;99.90;;;;;;4996397;28;20172;-67
2022/12/20 06:26:40;;;;;;;8.20;7.30;;;6.20;99.90;;;;;;4996113;28;20179;-68
2022/12/20 06:29:08;;;;;;;8.23;7.03;;;6.20;99.90;;;;;;4995833;28;20274;-67
2022/12/20 06:31:33;;;;;;;8.03;6.57;;;6.20;99.90;;;;;;4994708;28;20462;-67
2022/12/20 06:33:59;;;;;;;7.63;6.40;;;6.20;99.90;;;;;;4996022;28;20426;-67
2022/12/20 06:36:25;;;;;;;8.20;6.57;;;6.20;99.90;;;;;;4996182;28;20421;-67
2022/12/20 06:38:51;;;;;;;9.80;6.37;;;6.10;99.90;;;;;;4995687;28;20262;-67
2022/12/20 06:41:16;;;;;;;6.87;6.17;;;6.20;99.90;;;;;;4995910;28;20199;-67
2022/12/20 06:43:42;;;;;;;8.23;5.97;;;6.20;99.90;;;;;;4996029;28;20498;-67
2022/12/20 06:46:07;;;;;;;6.80;6.03;;;6.20;99.90;;;;;;4995809;28;20175;-67
2022/12/20 06:48:33;;;;;;;9.30;6.60;;;6.30;99.90;;;;;;4995468;28;20195;-67
2022/12/20 06:50:58;;;;;;;6.97;5.57;;;6.30;99.90;;;;;;4995636;28;20207;-67
2022/12/20 06:53:24;;;;;;;10.33;6.87;;;6.30;99.90;;;;;;4995559;28;20171;-68
2022/12/20 06:55:50;;;;;;;8.93;5.27;;;6.30;99.90;;;;;;4995657;28;20198;-68
2022/12/20 06:58:17;;;;;;;6.77;5.97;;;6.30;99.90;;;;;;4995415;28;20195;-69
2022/12/20 07:00:42;;;;;;;7.67;5.87;;;6.30;99.90;;;;;;4995648;28;20442;-67
2022/12/20 07:03:08;;;;;;;8.47;6.80;;;6.30;99.90;;;;;;4995389;28;20429;-69
2022/12/20 07:05:33;;;;;;;7.10;5.87;;;6.20;99.90;;;;;;4995560;28;20172;-67
2022/12/20 07:08:01;;;;;;;6.47;5.87;;;6.10;99.90;;;;;;4995517;28;20182;-67
2022/12/20 07:10:27;;;;;;;7.43;6.73;;;6.10;99.90;;;;;;4994837;28;20553;-68
2022/12/20 07:12:52;;;;;;;8.10;6.10;;;6.10;99.90;;;;;;4995397;28;20426;-67
2022/12/20 07:15:18;;;;;;;9.73;6.60;;;6.20;99.90;;;;;;4995361;28;20179;-67
2022/12/20 07:17:44;;;;;;;6.97;6.27;;;6.20;99.90;;;;;;4995181;28;20250;-68
2022/12/20 07:20:10;;;;;;;7.57;6.03;;;6.20;99.90;;;;;;4994974;28;20246;-67
2022/12/20 07:22:36;;;;;;;7.43;6.60;;;6.30;99.90;;;;;;4995268;28;20546;-68
2022/12/20 07:25:02;;;;;;;7.13;5.60;;;6.30;99.90;;;;;;4995124;28;20461;-67
2022/12/20 07:27:28;;;;;;;6.77;5.47;;;6.40;99.90;;;;;;4994792;28;20182;-67
2022/12/20 07:29:54;;;;;;;5.67;5.20;;;6.40;99.90;;;;;;4994790;28;20920;-66
2022/12/20 07:32:19;;;;;;;9.83;5.10;;;6.50;99.90;;;;;;4994717;28;20665;-68
2022/12/20 07:34:44;;;;;;;4.93;4.40;;;6.50;99.90;;;;;;4985258;28;20946;-71
2022/12/20 07:37:10;;;;;;;6.50;5.00;;;6.60;99.90;;;;;;4969848;28;20184;-69
2022/12/20 07:39:36;;;;;;;7.20;4.63;;;6.70;99.90;;;;;;4986843;28;20204;-68
2022/12/20 07:42:01;;;;;;;4.27;3.80;;;6.80;99.90;;;;;;4993853;28;20278;-66
2022/12/20 07:44:27;;;;;;;8.97;4.97;;;7.00;99.90;;;;;;4994320;28;20597;-66
2022/12/20 07:46:52;;;;;;;5.07;4.00;;;7.10;99.90;;;;;;4991176;28;20175;-69
2022/12/20 07:49:18;;;;;;;5.77;4.20;;;7.30;99.90;;;;;;4989606;28;20183;-67
2022/12/20 07:51:50;;;;;;;5.40;3.67;;;7.40;99.90;;;;;;4994371;28;20218;-67
2022/12/20 07:54:21;;;;;;;4.77;4.23;;;7.50;99.90;;;;;;4994454;28;20210;-66
2022/12/20 07:56:50;;;;;;;5.10;4.23;;;7.60;99.90;;;;;;4991153;28;20506;-67
2022/12/20 07:59:20;;;;;;;8.47;5.90;;;7.60;99.90;;;;;;4989960;28;20438;-68
2022/12/20 08:01:47;;;;;;;6.97;4.40;;;7.60;99.90;;;;;;4990090;28;20454;-67
2022/12/20 08:04:20;;;;;;;7.13;4.57;;;7.70;99.90;;;;;;4991174;28;20426;-67
2022/12/20 08:06:46;;;;;;;7.30;4.53;;;7.70;99.90;;;;;;4990843;28;20422;-68
2022/12/20 08:09:14;;;;;;;5.93;5.30;;;7.80;99.90;;;;;;4993954;28;20418;-69
2022/12/20 08:11:43;;;;;;;5.50;5.03;;;7.80;99.90;;;;;;4993163;28;20473;-67
2022/12/20 08:14:09;;;;;;;5.83;5.33;;;7.80;99.90;;;;;;4994323;28;20415;-69
2022/12/20 08:16:35;;;;;;;5.77;4.60;;;7.90;99.90;;;;;;4990163;28;20431;-67
2022/12/20 08:19:00;;;;;;;4.70;4.20;;;7.90;99.90;;;;;;4979089;28;20793;-67
2022/12/20 08:21:26;;;;;;;8.27;5.80;;;7.90;99.90;;;;;;4990684;28;20223;-68
2022/12/20 08:23:51;;;;;;;9.47;5.77;;;7.80;99.90;;;;;;4982968;28;20646;-69
2022/12/20 08:26:17;;;;;;;7.63;4.73;;;7.90;99.90;;;;;;4981141;28;20665;-67
2022/12/20 08:28:43;;;;;;;6.33;3.93;;;7.90;99.90;;;;;;4982627;28;20187;-66
2022/12/20 08:31:11;;;;;;;5.50;4.30;;;7.90;99.90;;;;;;4976745;28;20303;-65
2022/12/20 08:33:37;;;;;;;6.03;4.00;;;8.00;99.90;;;;;;4984632;28;20259;-71
2022/12/20 08:36:09;;;;;;;6.07;5.20;;;8.20;99.90;;;;;;4981347;28;20518;-70
2022/12/20 08:38:35;;;;;;;6.60;5.20;;;8.20;99.90;;;;;;4976750;28;20477;-68
2022/12/20 08:41:04;;;;;;;7.23;6.13;;;7.90;99.90;;;;;;4987934;28;20836;-67
2022/12/20 08:43:30;;;;;;;7.97;5.23;;;7.70;99.90;;;;;;4974401;28;20454;-69
2022/12/20 08:45:55;;;;;;;7.27;5.80;;;7.60;99.90;;;;;;4985488;28;20424;-68
2022/12/20 08:48:21;;;;;;;5.20;4.70;;;7.60;99.90;;;;;;4981458;28;21154;-67
2022/12/20 08:50:57;;;;;;;6.40;5.80;;;7.70;99.90;;;;;;4980410;28;20607;-67
2022/12/20 08:53:23;;;;;;;7.07;4.50;;;7.70;99.90;;;;;;4992478;28;20430;-67
2022/12/20 08:55:49;;;;;;;6.67;5.53;;;7.80;99.90;;;;;;4989312;28;20426;-68
2022/12/20 08:58:14;;;;;;;6.50;5.13;;;7.80;99.90;;;;;;4980547;28;20873;-67
2022/12/20 09:00:40;;;;;;;5.73;4.40;;;7.80;99.90;;;;;;4986696;28;20966;-67
2022/12/20 09:03:07;;;;;;;5.97;5.30;;;7.80;99.90;;;;;;4992896;28;20172;-68
2022/12/20 09:05:32;;;;;;;9.00;5.70;;;7.80;99.90;;;;;;4990656;28;20171;-66
2022/12/20 09:07:58;;;;;;;6.97;5.80;;;7.80;99.90;;;;;;4973642;28;20442;-69
2022/12/20 09:10:23;;;;;;;6.43;5.83;;;7.70;99.90;;;;;;4973375;28;20192;-67
2022/12/20 09:12:49;;;;;;;6.03;5.27;;;7.70;99.90;;;;;;4973645;28;20552;-68
2022/12/20 09:15:14;;;;;;;5.77;5.20;;;7.70;99.90;;;;;;4973708;28;20267;-68
2022/12/20 09:17:40;;;;;;;8.77;5.10;;;7.70;99.90;;;;;;4978187;28;20187;-67
2022/12/20 09:20:06;;;;;;;7.77;6.03;;;7.70;99.90;;;;;;4992453;28;20697;-68
2022/12/20 09:22:31;;;;;;;11.97;7.40;;;7.80;99.90;;;;;;4992970;28;20218;-67
2022/12/20 09:24:57;;;;;;;20.10;6.43;;;7.80;99.90;;;;;;4982716;28;20515;-69
2022/12/20 09:27:22;;;;;;;10.37;5.17;;;7.90;99.90;;;;;;4973509;28;20168;-67
2022/12/20 09:29:48;;;;;;;11.40;5.20;;;8.00;99.90;;;;;;4972729;28;20172;-67
2022/12/20 09:32:13;;;;;;;9.47;5.13;;;8.00;99.90;;;;;;4973058;28;20219;-67
2022/12/20 09:34:39;;;;;;;6.27;4.73;;;8.00;99.90;;;;;;4973115;28;20637;-67
2022/12/20 09:37:05;;;;;;;7.90;5.20;;;8.00;99.90;;;;;;4973053;28;20224;-67
2022/12/20 09:39:30;;;;;;;6.63;5.70;;;8.00;99.90;;;;;;4984705;28;20610;-67
2022/12/20 09:41:56;;;;;;;7.10;5.63;;;8.10;99.90;;;;;;4979087;28;20204;-68
2022/12/20 09:44:34;;;;;;;10.97;5.67;;;8.10;99.90;;;;;;4973533;28;20267;-68
2022/12/20 09:47:08;;;;;;;6.73;4.73;;;8.20;99.90;;;;;;4981740;28;20850;-67
2022/12/20 09:49:36;;;;;;;4.70;4.27;;;8.20;99.90;;;;;;4980425;28;20434;-67
2022/12/20 09:52:07;;;;;;;6.47;4.60;;;8.20;99.90;;;;;;4992003;28;20473;-69
2022/12/20 09:54:45;;;;;;;7.70;4.87;;;8.30;99.90;;;;;;4991609;28;20945;-68
2022/12/20 09:57:13;;;;;;;9.67;4.97;;;8.30;99.90;;;;;;4989853;28;20863;-67
2022/12/20 09:59:41;;;;;;;12.00;5.53;;;8.40;99.90;;;;;;4990785;28;20469;-68
2022/12/20 10:02:13;;;;;;;7.93;4.43;;;8.70;99.90;;;;;;4991110;28;20871;-69
2022/12/20 10:04:39;;;;;;;9.83;4.63;;;9.90;99.90;;;;;;4989768;28;20435;-72
2022/12/20 10:07:23;;;;;;;6.13;4.50;;;10.60;99.90;;;;;;4990436;28;20534;-67
2022/12/20 10:09:57;;;;;;;8.63;4.90;;;10.40;99.90;;;;;;4990634;28;20184;-68
2022/12/20 10:13:01;;;;;;;6.17;4.80;;;9.90;99.90;;;;;;4987676;28;20474;-67
2022/12/20 10:15:30;;;;;;;4.80;3.80;;;9.60;99.90;;;;;;4983051;28;20426;-68
2022/12/20 10:18:23;;;;;;;3.90;3.43;;;9.30;99.90;;;;;;4989557;28;20944;-69
2022/12/20 10:21:19;;;;;;;6.20;4.13;;;9.20;99.90;;;;;;4990797;28;20454;-68
2022/12/20 10:24:07;;;;;;;4.30;3.90;;;9.00;99.90;;;;;;4987047;28;20776;-68
2022/12/20 10:26:33;;;;;;;4.90;4.40;;;8.90;99.90;;;;;;4989433;28;20418;-69
2022/12/20 10:28:58;;;;;;;5.63;3.90;;;8.90;99.90;;;;;;4989576;28;20426;-67
2022/12/20 10:31:24;;;;;;;6.97;5.20;;;8.90;99.90;;;;;;4990649;28;20266;-68
2022/12/20 10:33:50;;;;;;;3.80;3.50;;;8.90;99.90;;;;;;4991029;28;20250;-68
2022/12/20 10:36:25;;;;;;;5.23;4.13;;;8.90;99.90;;;;;;4988027;28;20323;-69
2022/12/20 10:39:03;;;;;;;4.10;3.70;;;8.90;99.90;;;;;;4990963;28;20519;-68
2022/12/20 10:41:47;;;;;;;5.90;3.50;;;8.90;99.90;;;;;;4985704;28;20823;-68
2022/12/20 10:44:28;;;;;;;4.97;4.00;;;8.90;99.90;;;;;;4991230;28;20442;-68
2022/12/20 10:46:56;;;;;;;5.40;3.80;;;8.90;99.90;;;;;;4988323;28;20938;-67
2022/12/20 10:49:39;;;;;;;6.80;4.50;;;8.80;99.90;;;;;;4990439;28;20430;-68
2022/12/20 10:52:08;;;;;;;8.27;5.00;;;8.90;99.90;;;;;;4990759;28;20501;-67
2022/12/20 10:54:41;;;;;;;6.93;4.93;;;8.80;99.90;;;;;;4986238;28;20451;-67
2022/12/20 10:57:25;;;;;;;8.90;4.77;;;8.90;99.90;;;;;;4990342;28;20430;-68
2022/12/20 11:00:01;;;;;;;8.00;5.17;;;8.90;99.90;;;;;;4988600;28;20442;-67
2022/12/20 11:02:38;;;;;;;5.30;4.70;;;8.90;99.90;;;;;;4992033;28;21009;-68
2022/12/20 11:05:09;;;;;;;6.30;4.20;;;8.90;99.90;;;;;;4989701;28;21034;-67
2022/12/20 11:07:37;;;;;;;5.83;4.10;;;8.80;99.90;;;;;;4994568;28;20935;-67
2022/12/20 11:10:22;;;;;;;5.53;4.73;;;8.70;99.90;;;;;;4992165;28;20435;-67
2022/12/20 11:13:01;;;;;;;6.47;4.37;;;8.70;99.90;;;;;;4990627;28;20470;-68
2022/12/20 11:15:47;;;;;;;9.93;5.70;;;8.50;99.90;;;;;;4992413;28;20427;-68
2022/12/20 11:18:28;;;;;;;7.57;5.50;;;8.50;99.90;;;;;;4993713;28;20710;-68
2022/12/20 11:21:22;;;;;;;5.17;4.67;;;8.50;99.90;;;;;;4994146;28;20458;-67
2022/12/20 11:24:18;;;;;;;5.73;4.50;;;8.40;99.90;;;;;;4954737;28;20470;-69
2022/12/20 11:27:14;;;;;;;4.43;4.03;;;8.50;99.90;;;;;;4991714;28;20427;-67
2022/12/20 11:30:26;;;;;;;5.20;4.70;;;8.50;99.90;;;;;;4991237;28;20453;-67
2022/12/20 11:33:37;;;;;;;4.10;3.70;;;8.60;99.90;;;;;;4931234;29;20511;-67
2022/12/20 11:36:11;;;;;;;4.20;3.90;;;8.80;99.90;;;;;;4972533;28;20481;-66
2022/12/20 11:38:43;;;;;;;4.47;4.00;;;8.90;99.90;;;;;;4993758;28;20435;-67
2022/12/20 11:41:21;;;;;;;6.50;4.10;;;9.10;99.90;;;;;;4988332;28;20470;-67
2022/12/20 11:43:53;;;;;;;4.60;4.10;;;9.30;99.90;;;;;;4993289;28;20430;-67
2022/12/20 11:46:36;;;;;;;9.27;4.43;;;9.40;99.90;;;;;;4991684;28;20506;-68
2022/12/20 11:49:11;;;;;;;7.17;4.17;;;9.60;99.90;;;;;;4991296;28;20427;-68
2022/12/20 11:51:59;;;;;;;6.97;4.60;;;9.60;99.90;;;;;;4990529;28;20469;-68
2022/12/20 11:54:49;;;;;;;8.77;5.10;;;9.50;99.90;;;;;;4991547;28;20606;-68
2022/12/20 11:57:39;;;;;;;6.37;5.23;;;9.40;99.90;;;;;;4979331;28;20442;-68
2022/12/20 12:00:06;;;;;;;5.60;4.67;;;9.20;99.90;;;;;;4990104;28;20427;-67
2022/12/20 12:02:43;;;;;;;9.97;5.57;;;9.10;99.90;;;;;;4990742;28;20577;-68
2022/12/20 12:05:27;;;;;;;5.20;4.70;;;9.00;99.90;;;;;;4989676;28;20528;-67
2022/12/20 12:08:02;;;;;;;9.33;6.60;;;9.00;99.90;;;;;;4992444;28;20777;-67
2022/12/20 12:10:36;;;;;;;6.73;5.97;;;9.00;99.90;;;;;;4992901;28;20453;-69
2022/12/20 12:13:14;;;;;;;6.47;5.33;;;9.00;99.90;;;;;;4987433;28;20477;-70
2022/12/20 12:15:47;;;;;;;5.20;4.70;;;9.00;99.90;;;;;;4990856;28;21015;-68
2022/12/20 12:18:31;;;;;;;8.93;4.63;;;9.10;99.90;;;;;;4992120;28;20427;-70
2022/12/20 12:21:14;;;;;;;6.37;4.90;;;9.20;99.90;;;;;;4991837;28;20453;-69
2022/12/20 12:23:43;;;;;;;4.80;4.30;;;9.20;99.90;;;;;;4992063;28;20433;-68
2022/12/20 12:26:31;;;;;;;5.67;4.87;;;9.10;99.90;;;;;;4990350;28;20429;-68
2022/12/20 12:29:08;;;;;;;6.90;5.60;;;9.10;99.90;;;;;;4992426;28;20489;-68
2022/12/20 12:31:46;;;;;;;8.50;5.53;;;9.20;99.90;;;;;;4990222;28;20978;-71
2022/12/20 12:34:36;;;;;;;6.60;6.10;;;9.30;99.90;;;;;;4992589;28;20430;-68
2022/12/20 12:37:39;;;;;;;4.67;4.27;;;9.30;99.90;;;;;;4987293;28;20434;-68
2022/12/20 12:40:42;;;;;;;7.67;4.43;;;9.40;99.90;;;;;;4992396;28;20917;-69
2022/12/20 12:43:36;;;;;;;7.80;4.50;;;9.50;99.90;;;;;;4991247;28;20445;-68
2022/12/20 12:46:08;;;;;;;5.13;4.63;;;9.50;99.90;;;;;;4988034;28;20426;-68
2022/12/20 12:48:58;;;;;;;4.60;4.17;;;9.50;99.90;;;;;;4990364;28;20466;-68
2022/12/20 12:51:39;;;;;;;5.20;4.33;;;9.50;99.90;;;;;;4990819;28;20845;-68
2022/12/20 12:54:08;;;;;;;5.43;4.37;;;9.60;99.90;;;;;;4992534;28;20441;-68
2022/12/20 12:56:43;;;;;;;5.00;4.00;;;9.70;99.90;;;;;;4985713;28;20432;-67
2022/12/20 12:59:12;;;;;;;4.60;3.90;;;9.60;99.90;;;;;;4991798;28;20840;-68
2022/12/20 13:01:49;;;;;;;6.20;3.70;;;9.60;99.90;;;;;;4990051;28;20450;-68
2022/12/20 13:04:20;;;;;;;4.77;4.30;;;9.50;99.90;;;;;;4992259;28;20430;-68
2022/12/20 13:06:45;;;;;;;6.83;4.77;;;9.60;99.90;;;;;;4989509;28;20450;-68
2022/12/20 13:09:26;;;;;;;5.50;4.37;;;9.60;99.90;;;;;;4989887;28;20426;-69
2022/12/20 13:11:56;;;;;;;4.97;3.60;;;9.50;99.90;;;;;;4992005;28;20214;-68
2022/12/20 13:14:24;;;;;;;7.37;6.20;;;9.60;99.90;;;;;;4990101;28;20550;-69
2022/12/20 13:16:53;;;;;;;5.03;4.53;;;9.60;99.90;;;;;;4990008;28;20489;-68